Mae, Washington
Current Conditions -  °F | °C
As of 4:27 AM on Thursday 18 Dec 2014 (Local Time) from KMWH Reporting Station
Haze Haze  
Wind Chill: 36°   Ceiling: 200
Heat Index: 36°   Visibility: 1.5mi
Dew Point: 36°   Wind: 3mph
Humidity: 100%   Direction: 140°SE
Pressure: 30"   Gusts: NA
Location:  47.1758°N, 119.289°W
Report Text: KMWH 181227Z AUTO 14003KT 1 1/2SM R32R/5500VP6000FT BR OVC002 02/02 A3000 RMK AO2 T00220022
Loading
Personal Weather Stations






























Interactive Weather Map New forecast layout! Learn more

10-Day Weather Forecast

Advertisements
Track Severe Weather on mobile